sensor_id;sensor_type;location;lat;lon;timestamp;temperature;humidity
75985;DHT22;65033;44.660;37.758;2024-03-02T00:00:21;10.12;80.04
75985;DHT22;65033;44.660;37.758;2024-03-02T00:01:25;10.12;79.17
75985;DHT22;65033;44.660;37.758;2024-03-02T00:02:29;10.10;80.35
75985;DHT22;65033;44.660;37.758;2024-03-02T00:03:36;10.11;79.24
75985;DHT22;65033;44.660;37.758;2024-03-02T00:04:40;10.10;76.82
75985;DHT22;65033;44.660;37.758;2024-03-02T00:05:43;10.10;76.20
75985;DHT22;65033;44.660;37.758;2024-03-02T00:06:46;10.09;82.74
75985;DHT22;65033;44.660;37.758;2024-03-02T00:07:54;10.07;82.46
75985;DHT22;65033;44.660;37.758;2024-03-02T00:08:58;10.06;80.70
75985;DHT22;65033;44.660;37.758;2024-03-02T00:10:08;10.06;81.27
75985;DHT22;65033;44.660;37.758;2024-03-02T00:11:17;10.09;80.24
75985;DHT22;65033;44.660;37.758;2024-03-02T00:12:22;10.12;78.10
75985;DHT22;65033;44.660;37.758;2024-03-02T00:13:26;10.15;77.25
75985;DHT22;65033;44.660;37.758;2024-03-02T00:14:30;10.14;78.35
75985;DHT22;65033;44.660;37.758;2024-03-02T00:15:46;10.18;75.82
75985;DHT22;65033;44.660;37.758;2024-03-02T00:16:51;10.18;77.44
75985;DHT22;65033;44.660;37.758;2024-03-02T00:17:55;10.16;76.63
75985;DHT22;65033;44.660;37.758;2024-03-02T00:19:02;10.14;76.33
75985;DHT22;65033;44.660;37.758;2024-03-02T00:20:09;10.12;76.13
75985;DHT22;65033;44.660;37.758;2024-03-02T00:21:13;10.08;76.31
75985;DHT22;65033;44.660;37.758;2024-03-02T00:22:17;10.07;75.76
75985;DHT22;65033;44.660;37.758;2024-03-02T00:23:21;10.06;75.89
75985;DHT22;65033;44.660;37.758;2024-03-02T00:24:31;10.05;77.27
75985;DHT22;65033;44.660;37.758;2024-03-02T00:25:38;10.04;76.88
75985;DHT22;65033;44.660;37.758;2024-03-02T00:26:46;10.04;78.35
75985;DHT22;65033;44.660;37.758;2024-03-02T00:27:49;10.05;77.65
75985;DHT22;65033;44.660;37.758;2024-03-02T00:28:54;10.03;77.64
75985;DHT22;65033;44.660;37.758;2024-03-02T00:30:01;9.98;79.47
75985;DHT22;65033;44.660;37.758;2024-03-02T00:31:06;9.97;78.61
75985;DHT22;65033;44.660;37.758;2024-03-02T00:32:13;9.92;77.78
75985;DHT22;65033;44.660;37.758;2024-03-02T00:33:17;9.93;80.47
75985;DHT22;65033;44.660;37.758;2024-03-02T00:34:21;9.95;80.29
75985;DHT22;65033;44.660;37.758;2024-03-02T00:35:24;9.96;80.79
75985;DHT22;65033;44.660;37.758;2024-03-02T00:36:28;9.95;82.38
75985;DHT22;65033;44.660;37.758;2024-03-02T00:37:31;9.96;81.04
75985;DHT22;65033;44.660;37.758;2024-03-02T00:38:44;9.98;81.74
75985;DHT22;65033;44.660;37.758;2024-03-02T00:39:49;10.01;78.05
75985;DHT22;65033;44.660;37.758;2024-03-02T00:40:53;10.00;79.21
75985;DHT22;65033;44.660;37.758;2024-03-02T00:41:58;10.01;80.10
75985;DHT22;65033;44.660;37.758;2024-03-02T00:43:02;10.03;82.10
75985;DHT22;65033;44.660;37.758;2024-03-02T00:44:07;10.03;80.24
75985;DHT22;65033;44.660;37.758;2024-03-02T00:45:12;10.01;81.81
75985;DHT22;65033;44.660;37.758;2024-03-02T00:46:17;10.01;80.73
75985;DHT22;65033;44.660;37.758;2024-03-02T00:47:21;10.00;81.54
75985;DHT22;65033;44.660;37.758;2024-03-02T00:48:25;9.99;81.66
75985;DHT22;65033;44.660;37.758;2024-03-02T00:49:29;9.98;80.24
75985;DHT22;65033;44.660;37.758;2024-03-02T00:50:32;9.97;80.85
75985;DHT22;65033;44.660;37.758;2024-03-02T00:51:36;9.98;78.32
75985;DHT22;65033;44.660;37.758;2024-03-02T00:52:41;9.97;78.08
75985;DHT22;65033;44.660;37.758;2024-03-02T00:53:45;9.96;78.77
75985;DHT22;65033;44.660;37.758;2024-03-02T00:54:48;9.97;77.32
75985;DHT22;65033;44.660;37.758;2024-03-02T00:55:52;9.97;78.31
75985;DHT22;65033;44.660;37.758;2024-03-02T00:56:57;9.96;77.72
75985;DHT22;65033;44.660;37.758;2024-03-02T00:58:01;9.97;76.87
75985;DHT22;65033;44.660;37.758;2024-03-02T00:59:04;9.96;77.18
75985;DHT22;65033;44.660;37.758;2024-03-02T01:00:08;9.96;77.53
75985;DHT22;65033;44.660;37.758;2024-03-02T01:01:16;9.99;78.24
75985;DHT22;65033;44.660;37.758;2024-03-02T01:02:20;9.98;77.37
75985;DHT22;65033;44.660;37.758;2024-03-02T01:03:24;9.98;80.16
75985;DHT22;65033;44.660;37.758;2024-03-02T01:04:27;9.98;76.24
75985;DHT22;65033;44.660;37.758;2024-03-02T01:05:31;9.97;78.79
75985;DHT22;65033;44.660;37.758;2024-03-02T01:06:35;9.93;79.35
75985;DHT22;65033;44.660;37.758;2024-03-02T01:07:38;9.93;78.66
75985;DHT22;65033;44.660;37.758;2024-03-02T01:08:42;9.91;78.13
75985;DHT22;65033;44.660;37.758;2024-03-02T01:09:48;9.91;78.85
75985;DHT22;65033;44.660;37.758;2024-03-02T01:10:53;9.89;77.44
75985;DHT22;65033;44.660;37.758;2024-03-02T01:11:59;9.88;75.72
75985;DHT22;65033;44.660;37.758;2024-03-02T01:13:03;9.86;77.18
75985;DHT22;65033;44.660;37.758;2024-03-02T01:14:06;9.86;79.42
75985;DHT22;65033;44.660;37.758;2024-03-02T01:15:10;9.86;81.21
75985;DHT22;65033;44.660;37.758;2024-03-02T01:16:13;9.88;79.78
75985;DHT22;65033;44.660;37.758;2024-03-02T01:17:18;9.91;76.53
75985;DHT22;65033;44.660;37.758;2024-03-02T01:18:22;9.91;78.58
75985;DHT22;65033;44.660;37.758;2024-03-02T01:19:26;9.94;79.50
75985;DHT22;65033;44.660;37.758;2024-03-02T01:20:29;9.95;79.79
75985;DHT22;65033;44.660;37.758;2024-03-02T01:21:33;9.97;76.70
75985;DHT22;65033;44.660;37.758;2024-03-02T01:22:36;9.99;76.66
75985;DHT22;65033;44.660;37.758;2024-03-02T01:23:40;10.04;75.86
75985;DHT22;65033;44.660;37.758;2024-03-02T01:24:44;10.06;77.24
75985;DHT22;65033;44.660;37.758;2024-03-02T01:25:47;10.11;78.00
75985;DHT22;65033;44.660;37.758;2024-03-02T01:26:51;10.13;79.73
75985;DHT22;65033;44.660;37.758;2024-03-02T01:27:55;10.18;79.77
75985;DHT22;65033;44.660;37.758;2024-03-02T01:28:59;10.23;77.04
75985;DHT22;65033;44.660;37.758;2024-03-02T01:30:03;10.24;78.40
75985;DHT22;65033;44.660;37.758;2024-03-02T01:31:06;10.28;77.94
75985;DHT22;65033;44.660;37.758;2024-03-02T01:32:11;10.28;82.23
75985;DHT22;65033;44.660;37.758;2024-03-02T01:33:16;10.31;81.23
75985;DHT22;65033;44.660;37.758;2024-03-02T01:34:19;10.33;81.97
75985;DHT22;65033;44.660;37.758;2024-03-02T01:35:23;10.33;80.33
75985;DHT22;65033;44.660;37.758;2024-03-02T01:36:29;10.33;79.12
75985;DHT22;65033;44.660;37.758;2024-03-02T01:37:33;10.28;81.78
75985;DHT22;65033;44.660;37.758;2024-03-02T01:38:36;10.23;83.38
75985;DHT22;65033;44.660;37.758;2024-03-02T01:39:40;10.24;82.89
75985;DHT22;65033;44.660;37.758;2024-03-02T01:40:44;10.18;84.25
75985;DHT22;65033;44.660;37.758;2024-03-02T01:41:50;10.12;85.01
75985;DHT22;65033;44.660;37.758;2024-03-02T01:42:55;10.11;82.27
75985;DHT22;65033;44.660;37.758;2024-03-02T01:44:01;10.10;82.42
75985;DHT22;65033;44.660;37.758;2024-03-02T01:45:05;10.10;81.92
75985;DHT22;65033;44.660;37.758;2024-03-02T01:46:12;10.09;79.57
75985;DHT22;65033;44.660;37.758;2024-03-02T01:47:15;10.08;84.26
75985;DHT22;65033;44.660;37.758;2024-03-02T01:48:18;10.09;82.60
75985;DHT22;65033;44.660;37.758;2024-03-02T01:49:24;10.08;86.73
75985;DHT22;65033;44.660;37.758;2024-03-02T01:50:29;10.09;86.22
75985;DHT22;65033;44.660;37.758;2024-03-02T01:51:33;10.11;84.60
75985;DHT22;65033;44.660;37.758;2024-03-02T01:52:37;10.15;83.78
75985;DHT22;65033;44.660;37.758;2024-03-02T01:53:40;10.16;81.20
75985;DHT22;65033;44.660;37.758;2024-03-02T01:54:44;10.18;83.74
75985;DHT22;65033;44.660;37.758;2024-03-02T01:55:47;10.16;83.18
75985;DHT22;65033;44.660;37.758;2024-03-02T01:56:51;10.14;83.88
75985;DHT22;65033;44.660;37.758;2024-03-02T01:57:56;10.12;84.06
75985;DHT22;65033;44.660;37.758;2024-03-02T01:59:02;10.07;86.74
75985;DHT22;65033;44.660;37.758;2024-03-02T02:00:08;10.05;85.84
75985;DHT22;65033;44.660;37.758;2024-03-02T02:01:19;10.07;85.38
75985;DHT22;65033;44.660;37.758;2024-03-02T02:02:23;10.04;84.77
75985;DHT22;65033;44.660;37.758;2024-03-02T02:03:29;9.98;84.19
75985;DHT22;65033;44.660;37.758;2024-03-02T02:04:33;9.95;86.80
75985;DHT22;65033;44.660;37.758;2024-03-02T02:05:36;9.92;84.64
75985;DHT22;65033;44.660;37.758;2024-03-02T02:06:44;9.82;87.56
75985;DHT22;65033;44.660;37.758;2024-03-02T02:07:47;9.77;86.46
75985;DHT22;65033;44.660;37.758;2024-03-02T02:08:51;9.69;86.16
75985;DHT22;65033;44.660;37.758;2024-03-02T02:09:54;9.64;84.46
75985;DHT22;65033;44.660;37.758;2024-03-02T02:11:00;9.60;86.64
75985;DHT22;65033;44.660;37.758;2024-03-02T02:12:04;9.56;85.80
75985;DHT22;65033;44.660;37.758;2024-03-02T02:13:13;9.55;86.93
75985;DHT22;65033;44.660;37.758;2024-03-02T02:14:17;9.56;88.38
75985;DHT22;65033;44.660;37.758;2024-03-02T02:15:25;9.60;86.47
75985;DHT22;65033;44.660;37.758;2024-03-02T02:16:29;9.59;86.14
75985;DHT22;65033;44.660;37.758;2024-03-02T02:17:32;9.59;86.48
75985;DHT22;65033;44.660;37.758;2024-03-02T02:18:36;9.57;87.09
75985;DHT22;65033;44.660;37.758;2024-03-02T02:19:42;9.61;86.35
75985;DHT22;65033;44.660;37.758;2024-03-02T02:20:46;9.57;86.67
75985;DHT22;65033;44.660;37.758;2024-03-02T02:21:51;9.57;85.48
75985;DHT22;65033;44.660;37.758;2024-03-02T02:22:56;9.54;86.75
75985;DHT22;65033;44.660;37.758;2024-03-02T02:23:59;9.53;86.63
75985;DHT22;65033;44.660;37.758;2024-03-02T02:25:03;9.51;84.00
75985;DHT22;65033;44.660;37.758;2024-03-02T02:26:06;9.48;85.38
75985;DHT22;65033;44.660;37.758;2024-03-02T02:27:10;9.49;87.34
75985;DHT22;65033;44.660;37.758;2024-03-02T02:28:16;9.51;85.80
75985;DHT22;65033;44.660;37.758;2024-03-02T02:29:19;9.54;83.33
75985;DHT22;65033;44.660;37.758;2024-03-02T02:30:24;9.54;84.00
75985;DHT22;65033;44.660;37.758;2024-03-02T02:31:36;9.57;83.43
75985;DHT22;65033;44.660;37.758;2024-03-02T02:32:41;9.60;85.47
75985;DHT22;65033;44.660;37.758;2024-03-02T02:33:44;9.64;81.99
75985;DHT22;65033;44.660;37.758;2024-03-02T02:34:52;9.68;82.86
75985;DHT22;65033;44.660;37.758;2024-03-02T02:35:55;9.71;84.57
75985;DHT22;65033;44.660;37.758;2024-03-02T02:37:00;9.74;84.38
75985;DHT22;65033;44.660;37.758;2024-03-02T02:38:07;9.75;83.36
75985;DHT22;65033;44.660;37.758;2024-03-02T02:39:15;9.77;85.17
75985;DHT22;65033;44.660;37.758;2024-03-02T02:40:19;9.79;85.24
75985;DHT22;65033;44.660;37.758;2024-03-02T02:41:23;9.77;82.35
75985;DHT22;65033;44.660;37.758;2024-03-02T02:42:26;9.77;83.07
75985;DHT22;65033;44.660;37.758;2024-03-02T02:43:30;9.78;84.42
75985;DHT22;65033;44.660;37.758;2024-03-02T02:44:33;9.77;83.71
75985;DHT22;65033;44.660;37.758;2024-03-02T02:45:37;9.76;84.43
75985;DHT22;65033;44.660;37.758;2024-03-02T02:46:41;9.77;82.73
75985;DHT22;65033;44.660;37.758;2024-03-02T02:47:44;9.80;83.01
75985;DHT22;65033;44.660;37.758;2024-03-02T02:48:48;9.83;82.15
75985;DHT22;65033;44.660;37.758;2024-03-02T02:49:55;9.79;84.14
75985;DHT22;65033;44.660;37.758;2024-03-02T02:50:59;9.78;86.60
75985;DHT22;65033;44.660;37.758;2024-03-02T02:52:04;9.80;83.13
75985;DHT22;65033;44.660;37.758;2024-03-02T02:53:07;9.77;81.10
75985;DHT22;65033;44.660;37.758;2024-03-02T02:54:12;9.74;82.91
75985;DHT22;65033;44.660;37.758;2024-03-02T02:55:16;9.71;81.27
75985;DHT22;65033;44.660;37.758;2024-03-02T02:56:19;9.70;82.88
75985;DHT22;65033;44.660;37.758;2024-03-02T02:57:23;9.74;82.90
75985;DHT22;65033;44.660;37.758;2024-03-02T02:58:26;9.75;79.81
75985;DHT22;65033;44.660;37.758;2024-03-02T02:59:30;9.78;81.64
75985;DHT22;65033;44.660;37.758;2024-03-02T03:00:33;9.80;84.19
75985;DHT22;65033;44.660;37.758;2024-03-02T03:01:37;9.83;80.93
75985;DHT22;65033;44.660;37.758;2024-03-02T03:02:42;9.86;81.97
75985;DHT22;65033;44.660;37.758;2024-03-02T03:03:45;9.88;82.21
75985;DHT22;65033;44.660;37.758;2024-03-02T03:04:49;9.90;84.00
75985;DHT22;65033;44.660;37.758;2024-03-02T03:05:53;9.92;81.88
75985;DHT22;65033;44.660;37.758;2024-03-02T03:06:56;9.95;81.35
75985;DHT22;65033;44.660;37.758;2024-03-02T03:08:01;9.97;79.06
75985;DHT22;65033;44.660;37.758;2024-03-02T03:09:04;10.03;79.57
75985;DHT22;65033;44.660;37.758;2024-03-02T03:10:08;10.07;80.96
75985;DHT22;65033;44.660;37.758;2024-03-02T03:11:11;10.10;78.98
75985;DHT22;65033;44.660;37.758;2024-03-02T03:12:15;10.12;77.05
75985;DHT22;65033;44.660;37.758;2024-03-02T03:13:18;10.14;78.06
75985;DHT22;65033;44.660;37.758;2024-03-02T03:14:22;10.15;77.83
75985;DHT22;65033;44.660;37.758;2024-03-02T03:15:26;10.13;78.24
75985;DHT22;65033;44.660;37.758;2024-03-02T03:16:29;10.12;77.89
75985;DHT22;65033;44.660;37.758;2024-03-02T03:17:33;10.09;80.80
75985;DHT22;65033;44.660;37.758;2024-03-02T03:18:36;10.08;79.07
75985;DHT22;65033;44.660;37.758;2024-03-02T03:19:41;10.08;80.20
75985;DHT22;65033;44.660;37.758;2024-03-02T03:20:44;10.08;79.60
75985;DHT22;65033;44.660;37.758;2024-03-02T03:21:48;10.07;78.06
75985;DHT22;65033;44.660;37.758;2024-03-02T03:22:52;10.06;79.62
75985;DHT22;65033;44.660;37.758;2024-03-02T03:23:56;10.05;79.08
75985;DHT22;65033;44.660;37.758;2024-03-02T03:25:00;10.04;78.91
75985;DHT22;65033;44.660;37.758;2024-03-02T03:26:04;10.05;78.83
75985;DHT22;65033;44.660;37.758;2024-03-02T03:27:08;10.04;79.27
75985;DHT22;65033;44.660;37.758;2024-03-02T03:28:12;10.01;79.90
75985;DHT22;65033;44.660;37.758;2024-03-02T03:29:16;9.96;82.04
75985;DHT22;65033;44.660;37.758;2024-03-02T03:30:20;9.94;80.06
75985;DHT22;65033;44.660;37.758;2024-03-02T03:31:23;9.92;81.13
75985;DHT22;65033;44.660;37.758;2024-03-02T03:32:27;9.93;81.44
75985;DHT22;65033;44.660;37.758;2024-03-02T03:33:30;9.92;80.46
75985;DHT22;65033;44.660;37.758;2024-03-02T03:34:34;9.94;79.66
75985;DHT22;65033;44.660;37.758;2024-03-02T03:35:37;9.94;82.11
75985;DHT22;65033;44.660;37.758;2024-03-02T03:36:41;9.95;80.24
75985;DHT22;65033;44.660;37.758;2024-03-02T03:37:44;9.93;80.78
75985;DHT22;65033;44.660;37.758;2024-03-02T03:38:48;9.91;79.14
75985;DHT22;65033;44.660;37.758;2024-03-02T03:39:53;9.90;80.72
75985;DHT22;65033;44.660;37.758;2024-03-02T03:40:56;9.91;80.91
75985;DHT22;65033;44.660;37.758;2024-03-02T03:42:00;9.90;78.55
75985;DHT22;65033;44.660;37.758;2024-03-02T03:43:04;9.85;79.74
75985;DHT22;65033;44.660;37.758;2024-03-02T03:44:07;9.85;81.41
75985;DHT22;65033;44.660;37.758;2024-03-02T03:45:13;9.85;77.44
75985;DHT22;65033;44.660;37.758;2024-03-02T03:46:17;9.82;79.88
75985;DHT22;65033;44.660;37.758;2024-03-02T03:47:20;9.80;82.10
75985;DHT22;65033;44.660;37.758;2024-03-02T03:48:24;9.80;82.33
75985;DHT22;65033;44.660;37.758;2024-03-02T03:49:34;9.81;81.94
75985;DHT22;65033;44.660;37.758;2024-03-02T03:50:37;9.82;79.04
75985;DHT22;65033;44.660;37.758;2024-03-02T03:51:44;9.83;79.85
75985;DHT22;65033;44.660;37.758;2024-03-02T03:52:47;9.80;81.50
75985;DHT22;65033;44.660;37.758;2024-03-02T03:53:51;9.79;80.49
75985;DHT22;65033;44.660;37.758;2024-03-02T03:54:56;9.81;79.72
75985;DHT22;65033;44.660;37.758;2024-03-02T03:55:59;9.82;83.42
75985;DHT22;65033;44.660;37.758;2024-03-02T03:57:03;9.85;83.01
75985;DHT22;65033;44.660;37.758;2024-03-02T03:58:06;9.89;79.27
75985;DHT22;65033;44.660;37.758;2024-03-02T03:59:12;9.91;83.64
75985;DHT22;65033;44.660;37.758;2024-03-02T04:00:17;9.92;86.03
75985;DHT22;65033;44.660;37.758;2024-03-02T04:01:21;9.95;81.50
75985;DHT22;65033;44.660;37.758;2024-03-02T04:02:25;9.97;81.26
75985;DHT22;65033;44.660;37.758;2024-03-02T04:03:29;9.97;82.67
75985;DHT22;65033;44.660;37.758;2024-03-02T04:04:36;9.98;79.33
75985;DHT22;65033;44.660;37.758;2024-03-02T04:05:41;9.96;79.69
75985;DHT22;65033;44.660;37.758;2024-03-02T04:06:45;9.90;84.83
75985;DHT22;65033;44.660;37.758;2024-03-02T04:07:48;9.90;81.98
75985;DHT22;65033;44.660;37.758;2024-03-02T04:08:51;9.81;82.56
75985;DHT22;65033;44.660;37.758;2024-03-02T04:09:56;9.80;80.94
75985;DHT22;65033;44.660;37.758;2024-03-02T04:11:00;9.70;83.09
75985;DHT22;65033;44.660;37.758;2024-03-02T04:12:04;9.57;89.28
75985;DHT22;65033;44.660;37.758;2024-03-02T04:13:07;9.60;79.15
75985;DHT22;65033;44.660;37.758;2024-03-02T04:14:11;9.56;79.68
75985;DHT22;65033;44.660;37.758;2024-03-02T04:15:15;9.46;77.53
75985;DHT22;65033;44.660;37.758;2024-03-02T04:16:19;9.49;79.11
75985;DHT22;65033;44.660;37.758;2024-03-02T04:17:22;9.57;77.92
75985;DHT22;65033;44.660;37.758;2024-03-02T04:18:26;9.61;78.69
75985;DHT22;65033;44.660;37.758;2024-03-02T04:19:30;9.65;88.24
75985;DHT22;65033;44.660;37.758;2024-03-02T04:20:33;9.74;79.29
75985;DHT22;65033;44.660;37.758;2024-03-02T04:21:36;9.76;85.76
75985;DHT22;65033;44.660;37.758;2024-03-02T04:22:42;9.80;85.62
75985;DHT22;65033;44.660;37.758;2024-03-02T04:23:46;9.85;86.49
75985;DHT22;65033;44.660;37.758;2024-03-02T04:24:50;10.67;103.15
75985;DHT22;65033;44.660;37.758;2024-03-02T04:25:55;11.33;83.01
75985;DHT22;65033;44.660;37.758;2024-03-02T04:27:01;11.24;77.30
75985;DHT22;65033;44.660;37.758;2024-03-02T04:28:05;11.11;78.96
75985;DHT22;65033;44.660;37.758;2024-03-02T04:29:09;10.99;76.52
75985;DHT22;65033;44.660;37.758;2024-03-02T04:30:12;10.93;75.26
75985;DHT22;65033;44.660;37.758;2024-03-02T04:31:16;10.79;80.33
75985;DHT22;65033;44.660;37.758;2024-03-02T04:32:19;10.67;77.95
75985;DHT22;65033;44.660;37.758;2024-03-02T04:33:23;10.60;77.88
75985;DHT22;65033;44.660;37.758;2024-03-02T04:34:26;10.56;75.29
75985;DHT22;65033;44.660;37.758;2024-03-02T04:35:30;10.48;80.49
75985;DHT22;65033;44.660;37.758;2024-03-02T04:36:33;10.45;79.75
75985;DHT22;65033;44.660;37.758;2024-03-02T04:37:37;10.42;76.57
75985;DHT22;65033;44.660;37.758;2024-03-02T04:38:44;10.38;77.97
75985;DHT22;65033;44.660;37.758;2024-03-02T04:39:48;10.38;77.08
75985;DHT22;65033;44.660;37.758;2024-03-02T04:40:51;10.36;78.33
75985;DHT22;65033;44.660;37.758;2024-03-02T04:41:56;10.33;76.83
75985;DHT22;65033;44.660;37.758;2024-03-02T04:42:59;10.29;79.74
75985;DHT22;65033;44.660;37.758;2024-03-02T04:44:03;10.31;77.53
75985;DHT22;65033;44.660;37.758;2024-03-02T04:45:07;10.29;79.23
75985;DHT22;65033;44.660;37.758;2024-03-02T04:46:13;10.34;75.50
75985;DHT22;65033;44.660;37.758;2024-03-02T04:47:17;10.37;74.80
75985;DHT22;65033;44.660;37.758;2024-03-02T04:48:20;10.37;74.18
75985;DHT22;65033;44.660;37.758;2024-03-02T04:49:25;10.40;74.66
75985;DHT22;65033;44.660;37.758;2024-03-02T04:50:29;10.39;75.32
75985;DHT22;65033;44.660;37.758;2024-03-02T04:51:33;10.40;81.79
75985;DHT22;65033;44.660;37.758;2024-03-02T04:52:37;10.44;76.30
75985;DHT22;65033;44.660;37.758;2024-03-02T04:53:43;10.44;77.04
75985;DHT22;65033;44.660;37.758;2024-03-02T04:54:49;10.48;75.00
75985;DHT22;65033;44.660;37.758;2024-03-02T04:56:13;10.52;77.45
75985;DHT22;65033;44.660;37.758;2024-03-02T04:57:30;10.56;76.34
75985;DHT22;65033;44.660;37.758;2024-03-02T04:58:36;10.57;76.85
75985;DHT22;65033;44.660;37.758;2024-03-02T04:59:40;10.59;77.83
75985;DHT22;65033;44.660;37.758;2024-03-02T05:00:43;10.63;76.69
75985;DHT22;65033;44.660;37.758;2024-03-02T05:01:50;10.66;76.93
75985;DHT22;65033;44.660;37.758;2024-03-02T05:02:54;10.70;75.18
75985;DHT22;65033;44.660;37.758;2024-03-02T05:03:58;10.73;74.26
75985;DHT22;65033;44.660;37.758;2024-03-02T05:05:01;10.80;73.69
75985;DHT22;65033;44.660;37.758;2024-03-02T05:06:06;10.82;70.23
75985;DHT22;65033;44.660;37.758;2024-03-02T05:07:09;10.83;76.07
75985;DHT22;65033;44.660;37.758;2024-03-02T05:08:13;10.86;76.54
75985;DHT22;65033;44.660;37.758;2024-03-02T05:09:16;10.88;75.77
75985;DHT22;65033;44.660;37.758;2024-03-02T05:10:20;10.92;76.57
75985;DHT22;65033;44.660;37.758;2024-03-02T05:11:23;10.96;73.23
75985;DHT22;65033;44.660;37.758;2024-03-02T05:12:43;11.72;85.80
75985;DHT22;65033;44.660;37.758;2024-03-02T05:13:47;12.01;72.05
75985;DHT22;65033;44.660;37.758;2024-03-02T05:14:50;11.94;76.53
75985;DHT22;65033;44.660;37.758;2024-03-02T05:15:54;11.92;70.53
75985;DHT22;65033;44.660;37.758;2024-03-02T05:16:57;11.83;73.65
75985;DHT22;65033;44.660;37.758;2024-03-02T05:18:01;11.76;72.48
75985;DHT22;65033;44.660;37.758;2024-03-02T05:19:08;11.74;74.65
75985;DHT22;65033;44.660;37.758;2024-03-02T05:20:12;11.77;70.96
75985;DHT22;65033;44.660;37.758;2024-03-02T05:21:16;11.72;73.42
75985;DHT22;65033;44.660;37.758;2024-03-02T05:22:19;11.71;72.87
75985;DHT22;65033;44.660;37.758;2024-03-02T05:23:22;11.69;75.56
75985;DHT22;65033;44.660;37.758;2024-03-02T05:24:27;11.69;73.49
75985;DHT22;65033;44.660;37.758;2024-03-02T05:25:32;11.70;72.88
75985;DHT22;65033;44.660;37.758;2024-03-02T05:26:38;11.72;75.29
75985;DHT22;65033;44.660;37.758;2024-03-02T05:27:43;11.78;72.39
75985;DHT22;65033;44.660;37.758;2024-03-02T05:28:47;11.78;74.51
75985;DHT22;65033;44.660;37.758;2024-03-02T05:29:51;11.81;73.50
75985;DHT22;65033;44.660;37.758;2024-03-02T05:30:54;11.79;73.61
75985;DHT22;65033;44.660;37.758;2024-03-02T05:31:57;11.84;73.35
75985;DHT22;65033;44.660;37.758;2024-03-02T05:33:01;11.85;76.15
75985;DHT22;65033;44.660;37.758;2024-03-02T05:34:05;11.90;75.70
75985;DHT22;65033;44.660;37.758;2024-03-02T05:35:12;11.92;77.85
75985;DHT22;65033;44.660;37.758;2024-03-02T05:36:16;11.96;76.35
75985;DHT22;65033;44.660;37.758;2024-03-02T05:37:22;11.96;80.15
75985;DHT22;65033;44.660;37.758;2024-03-02T05:38:25;11.97;79.27
75985;DHT22;65033;44.660;37.758;2024-03-02T05:39:28;11.96;78.62
75985;DHT22;65033;44.660;37.758;2024-03-02T05:40:32;12.04;89.99
75985;DHT22;65033;44.660;37.758;2024-03-02T05:41:37;12.71;92.67
75985;DHT22;65033;44.660;37.758;2024-03-02T05:42:43;12.80;77.53
75985;DHT22;65033;44.660;37.758;2024-03-02T05:43:47;12.72;77.12
75985;DHT22;65033;44.660;37.758;2024-03-02T05:44:51;12.60;80.26
75985;DHT22;65033;44.660;37.758;2024-03-02T05:45:54;12.55;76.67
75985;DHT22;65033;44.660;37.758;2024-03-02T05:46:58;12.45;78.08
75985;DHT22;65033;44.660;37.758;2024-03-02T05:48:01;12.44;75.87
75985;DHT22;65033;44.660;37.758;2024-03-02T05:49:08;12.44;75.99
75985;DHT22;65033;44.660;37.758;2024-03-02T05:50:13;12.45;75.65
75985;DHT22;65033;44.660;37.758;2024-03-02T05:51:16;12.47;80.01
75985;DHT22;65033;44.660;37.758;2024-03-02T05:52:19;12.49;79.99
75985;DHT22;65033;44.660;37.758;2024-03-02T05:53:23;12.46;78.11
75985;DHT22;65033;44.660;37.758;2024-03-02T05:54:27;12.49;77.51
75985;DHT22;65033;44.660;37.758;2024-03-02T05:55:30;12.52;76.35
75985;DHT22;65033;44.660;37.758;2024-03-02T05:56:37;12.58;76.33
75985;DHT22;65033;44.660;37.758;2024-03-02T05:57:41;12.61;74.81
75985;DHT22;65033;44.660;37.758;2024-03-02T05:58:49;12.63;79.98
75985;DHT22;65033;44.660;37.758;2024-03-02T05:59:55;12.69;75.15
75985;DHT22;65033;44.660;37.758;2024-03-02T06:00:58;12.75;74.38
75985;DHT22;65033;44.660;37.758;2024-03-02T06:02:03;12.81;73.27
75985;DHT22;65033;44.660;37.758;2024-03-02T06:03:07;12.82;74.06
75985;DHT22;65033;44.660;37.758;2024-03-02T06:04:12;12.89;70.17
75985;DHT22;65033;44.660;37.758;2024-03-02T06:05:16;12.89;72.33
75985;DHT22;65033;44.660;37.758;2024-03-02T06:06:26;12.93;74.18
75985;DHT22;65033;44.660;37.758;2024-03-02T06:07:30;12.93;74.57
75985;DHT22;65033;44.660;37.758;2024-03-02T06:08:34;13.02;74.02
75985;DHT22;65033;44.660;37.758;2024-03-02T06:09:38;13.06;74.39
75985;DHT22;65033;44.660;37.758;2024-03-02T06:10:42;13.05;74.06
75985;DHT22;65033;44.660;37.758;2024-03-02T06:11:46;13.08;74.80
75985;DHT22;65033;44.660;37.758;2024-03-02T06:12:50;13.12;75.08
75985;DHT22;65033;44.660;37.758;2024-03-02T06:13:55;13.18;73.90
75985;DHT22;65033;44.660;37.758;2024-03-02T06:14:58;13.23;74.02
75985;DHT22;65033;44.660;37.758;2024-03-02T06:16:02;13.29;72.86
75985;DHT22;65033;44.660;37.758;2024-03-02T06:17:05;13.31;76.49
75985;DHT22;65033;44.660;37.758;2024-03-02T06:18:09;13.37;74.20
75985;DHT22;65033;44.660;37.758;2024-03-02T06:19:12;13.45;77.03
75985;DHT22;65033;44.660;37.758;2024-03-02T06:20:16;13.48;74.97
75985;DHT22;65033;44.660;37.758;2024-03-02T06:21:19;14.15;80.46
75985;DHT22;65033;44.660;37.758;2024-03-02T06:22:22;14.93;101.31
75985;DHT22;65033;44.660;37.758;2024-03-02T06:23:28;15.41;83.42
75985;DHT22;65033;44.660;37.758;2024-03-02T06:24:31;15.58;68.23
75985;DHT22;65033;44.660;37.758;2024-03-02T06:25:35;15.52;71.25
75985;DHT22;65033;44.660;37.758;2024-03-02T06:26:38;15.41;74.92
75985;DHT22;65033;44.660;37.758;2024-03-02T06:27:42;15.19;71.59
75985;DHT22;65033;44.660;37.758;2024-03-02T06:28:46;14.99;72.10
75985;DHT22;65033;44.660;37.758;2024-03-02T06:29:52;14.92;72.70
75985;DHT22;65033;44.660;37.758;2024-03-02T06:30:55;14.85;73.29
75985;DHT22;65033;44.660;37.758;2024-03-02T06:31:59;14.78;70.78
75985;DHT22;65033;44.660;37.758;2024-03-02T06:33:02;14.70;73.01
75985;DHT22;65033;44.660;37.758;2024-03-02T06:34:06;14.69;71.93
75985;DHT22;65033;44.660;37.758;2024-03-02T06:35:11;14.72;70.40
75985;DHT22;65033;44.660;37.758;2024-03-02T06:36:15;14.72;72.68
75985;DHT22;65033;44.660;37.758;2024-03-02T06:37:20;14.65;77.11
75985;DHT22;65033;44.660;37.758;2024-03-02T06:38:23;14.63;72.29
75985;DHT22;65033;44.660;37.758;2024-03-02T06:39:26;14.57;75.42
75985;DHT22;65033;44.660;37.758;2024-03-02T06:40:30;14.58;75.74
75985;DHT22;65033;44.660;37.758;2024-03-02T06:41:34;14.65;73.54
75985;DHT22;65033;44.660;37.758;2024-03-02T06:42:37;14.66;71.21
75985;DHT22;65033;44.660;37.758;2024-03-02T06:43:41;14.56;73.05